Time;durP1;ratioP1;P1;durP2;ratioP2;P2;SDS_P1;SDS_P2;PMS_P1;PMS_P2;Temp;Humidity;BMP_temperature;BMP_pressure;BME280_temperature;BME280_humidity;BME280_pressure;Samples;Min_cycle;Max_cycle;Signal;HPM_P1;HPM_P2
2022/10/13 00:01:22;;;;;;;28.50;13.18;;;9.80;99.90;;;;;;5058308;28;20074;-58
2022/10/13 00:03:49;;;;;;;23.63;13.85;;;9.80;99.90;;;;;;5059150;28;20045;-58
2022/10/13 00:06:17;;;;;;;23.58;12.93;;;9.80;99.90;;;;;;5059345;28;20065;-57
2022/10/13 00:08:44;;;;;;;26.48;12.77;;;9.90;99.90;;;;;;5059473;28;20577;-58
2022/10/13 00:11:10;;;;;;;35.63;16.05;;;9.90;99.90;;;;;;5058693;28;20040;-58
2022/10/13 00:13:35;;;;;;;26.17;14.25;;;9.90;99.90;;;;;;5059422;28;20099;-57
2022/10/13 00:16:01;;;;;;;22.27;13.52;;;9.90;99.90;;;;;;5058913;28;20123;-58
2022/10/13 00:18:27;;;;;;;28.70;14.68;;;9.80;99.90;;;;;;5059486;28;20252;-58
2022/10/13 00:20:52;;;;;;;28.10;14.18;;;10.00;99.90;;;;;;5058600;28;20029;-58
2022/10/13 00:23:18;;;;;;;27.90;14.27;;;9.90;99.90;;;;;;5059447;28;20059;-58
2022/10/13 00:25:46;;;;;;;27.38;14.52;;;9.80;99.90;;;;;;5059036;28;20033;-58
2022/10/13 00:28:13;;;;;;;27.33;15.30;;;9.90;99.90;;;;;;5058434;28;20091;-57
2022/10/13 00:30:39;;;;;;;24.45;13.77;;;9.90;99.90;;;;;;5059304;28;20097;-58
2022/10/13 00:33:05;;;;;;;25.02;15.43;;;9.80;99.90;;;;;;5056562;28;20095;-58
2022/10/13 00:35:31;;;;;;;29.25;15.35;;;9.90;99.90;;;;;;5059262;28;20037;-58
2022/10/13 00:37:57;;;;;;;30.38;14.93;;;9.80;99.90;;;;;;5058727;28;20037;-58
2022/10/13 00:40:23;;;;;;;24.42;14.82;;;9.90;99.90;;;;;;5073126;28;20048;-58
2022/10/13 00:42:48;;;;;;;28.80;14.80;;;9.80;99.90;;;;;;5079056;28;20079;-57
2022/10/13 00:45:22;;;;;;;27.60;14.55;;;9.90;99.90;;;;;;5077208;28;20041;-57
2022/10/13 00:47:51;;;;;;;25.65;14.63;;;10.00;99.90;;;;;;5079125;28;20040;-58
2022/10/13 00:50:22;;;;;;;27.23;15.43;;;10.00;99.90;;;;;;5078371;28;20058;-59
2022/10/13 00:52:50;;;;;;;27.35;15.98;;;9.90;99.90;;;;;;5079255;28;20044;-59
2022/10/13 00:55:21;;;;;;;25.25;15.20;;;9.80;99.90;;;;;;5078664;28;20045;-58
2022/10/13 00:57:53;;;;;;;27.23;15.77;;;10.00;99.90;;;;;;5078850;28;20040;-59
2022/10/13 01:00:23;;;;;;;30.00;15.52;;;9.90;99.90;;;;;;5063425;28;20037;-58
2022/10/13 01:02:49;;;;;;;27.38;15.68;;;9.90;99.90;;;;;;5058121;28;20045;-57
2022/10/13 01:05:15;;;;;;;32.30;16.58;;;10.00;99.90;;;;;;5058924;28;20044;-60
2022/10/13 01:07:41;;;;;;;28.63;15.20;;;9.90;99.90;;;;;;5058079;28;20037;-57
2022/10/13 01:10:07;;;;;;;32.78;16.75;;;9.90;99.90;;;;;;5058792;28;20063;-58
2022/10/13 01:12:54;;;;;;;28.83;14.98;;;9.90;99.90;;;;;;5058321;28;20045;-58
2022/10/13 01:15:38;;;;;;;28.27;16.85;;;10.00;99.90;;;;;;5058178;28;20405;-58
2022/10/13 01:18:19;;;;;;;25.58;15.63;;;9.90;99.90;;;;;;5057433;28;20048;-58
2022/10/13 01:21:08;;;;;;;29.33;16.17;;;9.80;99.90;;;;;;5056990;28;20091;-58
2022/10/13 01:24:01;;;;;;;29.73;15.45;;;10.00;99.90;;;;;;5058631;28;20049;-59
2022/10/13 01:26:51;;;;;;;30.15;15.60;;;9.80;99.90;;;;;;5058806;28;20114;-59
2022/10/13 01:29:45;;;;;;;29.90;16.95;;;9.90;99.90;;;;;;5057842;28;20041;-58
2022/10/13 01:32:22;;;;;;;37.25;17.98;;;9.90;99.90;;;;;;5058443;28;20072;-59
2022/10/13 01:34:52;;;;;;;28.98;16.45;;;10.00;99.90;;;;;;5058921;28;20057;-59
2022/10/13 01:37:57;;;;;;;27.52;17.05;;;9.90;99.90;;;;;;5058065;28;20083;-59
2022/10/13 01:40:48;;;;;;;33.28;16.73;;;9.70;99.90;;;;;;5071656;28;20048;-59
2022/10/13 01:43:22;;;;;;;28.80;16.00;;;9.80;99.90;;;;;;5079034;28;20272;-59
2022/10/13 01:46:01;;;;;;;32.30;16.48;;;9.70;99.90;;;;;;5081549;28;20040;-59
2022/10/13 01:48:28;;;;;;;25.95;16.45;;;9.90;99.90;;;;;;5082128;28;20070;-57
2022/10/13 01:50:56;;;;;;;33.05;17.65;;;9.80;99.90;;;;;;5080324;28;20101;-57
2022/10/13 01:53:23;;;;;;;28.27;16.88;;;9.80;99.90;;;;;;5081815;28;20051;-57
2022/10/13 01:55:56;;;;;;;32.05;16.60;;;9.80;99.90;;;;;;5082153;28;20045;-57
2022/10/13 01:58:23;;;;;;;28.52;15.65;;;9.80;99.90;;;;;;5079728;28;20045;-57
2022/10/13 02:01:04;;;;;;;29.67;15.73;;;9.90;99.90;;;;;;5062087;28;20041;-57
2022/10/13 02:03:56;;;;;;;30.35;17.05;;;9.80;99.90;;;;;;5061291;28;20100;-57
2022/10/13 02:06:56;;;;;;;32.72;16.83;;;9.80;99.90;;;;;;5061465;28;20044;-58
2022/10/13 02:09:38;;;;;;;25.23;16.92;;;9.80;99.90;;;;;;5056895;28;20053;-58
2022/10/13 02:12:07;;;;;;;;;;;9.90;99.90;;;;;;5061730;28;20063;-57
2022/10/13 02:14:36;;;;;;;25.85;15.32;;;9.90;99.90;;;;;;5061528;28;19959;-58
2022/10/13 02:17:04;;;;;;;27.45;16.40;;;9.90;99.90;;;;;;5061403;28;20037;-57
2022/10/13 02:19:34;;;;;;;30.02;16.40;;;9.80;99.90;;;;;;5058434;28;20044;-58
2022/10/13 02:21:59;;;;;;;27.90;17.40;;;9.70;99.90;;;;;;5081779;28;20075;-58
2022/10/13 02:24:25;;;;;;;30.15;15.70;;;9.70;99.90;;;;;;5080949;28;20441;-58
2022/10/13 02:26:51;;;;;;;34.63;17.67;;;9.80;99.90;;;;;;5081707;28;20056;-57
2022/10/13 02:29:18;;;;;;;28.27;16.58;;;9.80;99.90;;;;;;5079660;28;20048;-57
2022/10/13 02:31:44;;;;;;;26.33;16.73;;;9.70;99.90;;;;;;5081564;28;20052;-56
2022/10/13 02:34:11;;;;;;;27.75;15.73;;;9.70;99.90;;;;;;5080941;28;20036;-57
2022/10/13 02:36:37;;;;;;;28.60;15.77;;;9.70;99.90;;;;;;5080758;28;20101;-58
2022/10/13 02:39:08;;;;;;;32.05;16.27;;;9.90;99.90;;;;;;5079787;28;20037;-58
2022/10/13 02:41:34;;;;;;;31.52;16.35;;;9.80;99.90;;;;;;5080631;28;20036;-58
2022/10/13 02:43:59;;;;;;;29.83;17.38;;;9.80;99.90;;;;;;5081108;28;20485;-59
2022/10/13 02:46:25;;;;;;;29.25;16.30;;;9.60;99.90;;;;;;5080656;28;20044;-57
2022/10/13 02:48:51;;;;;;;30.23;15.85;;;9.80;99.90;;;;;;5080994;28;20056;-57
2022/10/13 02:51:17;;;;;;;27.35;16.17;;;9.80;99.90;;;;;;5080695;28;20037;-57
2022/10/13 02:53:42;;;;;;;33.38;16.35;;;9.90;99.90;;;;;;5080469;28;20104;-57
2022/10/13 02:56:08;;;;;;;30.35;16.02;;;9.80;99.90;;;;;;5080573;28;20416;-57
2022/10/13 02:58:34;;;;;;;28.98;15.48;;;9.80;99.90;;;;;;5080053;28;20467;-57
2022/10/13 03:01:11;;;;;;;31.15;18.38;;;9.80;99.90;;;;;;5081077;28;20041;-57
2022/10/13 03:03:37;;;;;;;28.55;16.40;;;9.90;99.90;;;;;;5080050;28;20052;-57
2022/10/13 03:06:03;;;;;;;25.90;15.45;;;9.90;99.90;;;;;;5080977;28;20056;-57
2022/10/13 03:08:31;;;;;;;30.05;16.02;;;9.80;99.90;;;;;;5079144;28;20098;-57
2022/10/13 03:10:57;;;;;;;26.95;16.10;;;9.80;99.90;;;;;;5079686;28;20084;-54
2022/10/13 03:13:23;;;;;;;30.23;17.08;;;9.80;99.90;;;;;;5080725;28;20049;-57
2022/10/13 03:15:49;;;;;;;27.90;16.50;;;9.90;99.90;;;;;;5079566;28;20461;-57
2022/10/13 03:18:15;;;;;;;31.50;15.45;;;10.00;99.90;;;;;;5080511;28;20051;-56
2022/10/13 03:20:41;;;;;;;31.05;15.90;;;10.00;99.90;;;;;;5079986;28;20045;-57
2022/10/13 03:23:06;;;;;;;26.20;16.75;;;10.00;99.90;;;;;;5078987;28;20090;-57
2022/10/13 03:25:33;;;;;;;25.45;15.85;;;10.00;99.90;;;;;;5080153;28;20052;-57
2022/10/13 03:27:59;;;;;;;31.60;17.42;;;9.90;99.90;;;;;;5079613;28;20068;-57
2022/10/13 03:30:25;;;;;;;32.53;16.83;;;9.90;99.90;;;;;;5080104;28;20056;-57
2022/10/13 03:32:51;;;;;;;29.33;17.23;;;9.80;99.90;;;;;;5079384;28;20063;-57
2022/10/13 03:35:16;;;;;;;32.72;17.17;;;9.90;99.90;;;;;;5080155;28;20083;-57
2022/10/13 03:37:42;;;;;;;29.58;16.92;;;10.00;99.90;;;;;;5078273;28;20041;-58
2022/10/13 03:40:09;;;;;;;33.42;17.80;;;10.00;99.90;;;;;;5079799;28;20048;-58
2022/10/13 03:42:35;;;;;;;31.58;18.85;;;10.10;99.90;;;;;;5078230;28;20100;-57
2022/10/13 03:45:02;;;;;;;32.60;18.25;;;9.90;99.90;;;;;;5079313;28;20051;-58
2022/10/13 03:47:28;;;;;;;27.48;16.45;;;10.00;99.90;;;;;;5080122;28;20089;-58
2022/10/13 03:49:54;;;;;;;31.65;18.23;;;10.10;99.90;;;;;;5079298;28;20281;-59
2022/10/13 03:52:21;;;;;;;32.42;18.58;;;9.80;99.90;;;;;;5079875;28;20074;-59
2022/10/13 03:54:47;;;;;;;35.42;19.23;;;9.90;99.90;;;;;;5079443;28;20040;-58
2022/10/13 03:57:12;;;;;;;29.88;18.52;;;9.80;99.90;;;;;;5080106;28;20047;-59
2022/10/13 03:59:39;;;;;;;32.33;19.33;;;10.00;99.90;;;;;;5069301;28;20627;-58
2022/10/13 04:02:06;;;;;;;33.33;18.92;;;10.30;99.90;;;;;;5057986;28;20040;-59
2022/10/13 04:04:32;;;;;;;28.40;18.38;;;9.80;99.90;;;;;;5059663;28;20096;-58
2022/10/13 04:06:57;;;;;;;33.83;19.45;;;9.80;99.90;;;;;;5057957;28;20041;-58
2022/10/13 04:09:23;;;;;;;34.83;20.00;;;9.90;99.90;;;;;;5057791;28;20110;-58
2022/10/13 04:11:50;;;;;;;34.00;21.30;;;10.00;99.90;;;;;;5059000;28;20077;-59
2022/10/13 04:14:16;;;;;;;42.28;21.48;;;9.90;99.90;;;;;;5059380;28;20053;-59
2022/10/13 04:16:41;;;;;;;36.00;21.27;;;10.00;99.90;;;;;;5059155;28;20503;-58
2022/10/13 04:19:09;;;;;;;35.35;20.40;;;9.80;99.90;;;;;;5057923;28;20057;-59
2022/10/13 04:21:35;;;;;;;34.63;21.05;;;10.00;99.90;;;;;;5059728;28;20041;-58
2022/10/13 04:24:02;;;;;;;37.53;22.00;;;10.00;99.90;;;;;;5058629;28;20051;-59
2022/10/13 04:26:30;;;;;;;35.03;21.73;;;9.80;99.90;;;;;;5059580;28;20454;-59
2022/10/13 04:28:55;;;;;;;33.35;20.00;;;9.80;99.90;;;;;;5058647;28;20045;-59
2022/10/13 04:31:22;;;;;;;34.28;20.73;;;9.90;99.90;;;;;;5059296;28;20045;-58
2022/10/13 04:33:49;;;;;;;37.88;22.48;;;10.10;99.90;;;;;;5058879;28;20084;-59
2022/10/13 04:36:16;;;;;;;34.60;20.58;;;10.10;99.90;;;;;;5058710;28;20099;-59
2022/10/13 04:38:42;;;;;;;37.40;21.15;;;10.00;99.90;;;;;;5059437;28;20103;-59
2022/10/13 04:41:09;;;;;;;35.30;20.23;;;9.90;99.90;;;;;;5078062;28;20045;-58
2022/10/13 04:43:35;;;;;;;36.92;21.67;;;9.80;99.90;;;;;;5079443;28;20048;-58
2022/10/13 04:46:03;;;;;;;40.33;21.48;;;10.00;99.90;;;;;;5078885;28;20041;-58
2022/10/13 04:48:29;;;;;;;33.35;21.65;;;10.00;99.90;;;;;;5079341;28;20091;-58
2022/10/13 04:51:09;;;;;;;37.42;22.05;;;10.10;99.90;;;;;;5078595;28;20036;-58
2022/10/13 04:53:35;;;;;;;37.15;22.63;;;9.80;99.90;;;;;;5078509;28;20053;-59
2022/10/13 04:56:03;;;;;;;36.88;21.73;;;9.70;99.90;;;;;;5079360;28;20112;-59
2022/10/13 04:58:30;;;;;;;38.55;21.85;;;9.80;99.90;;;;;;5077849;28;20088;-59
2022/10/13 05:00:56;;;;;;;42.75;23.27;;;9.80;99.90;;;;;;5059277;28;20389;-59
2022/10/13 05:03:22;;;;;;;34.50;21.23;;;9.80;99.90;;;;;;5058434;28;20041;-59
2022/10/13 05:05:49;;;;;;;39.25;23.50;;;10.00;99.90;;;;;;5058980;28;20041;-59
2022/10/13 05:08:14;;;;;;;42.80;24.40;;;10.00;99.90;;;;;;5058397;28;20100;-58
2022/10/13 05:10:40;;;;;;;39.20;22.92;;;9.60;99.90;;;;;;5058158;28;20053;-59
2022/10/13 05:13:06;;;;;;;36.00;22.83;;;9.70;99.90;;;;;;5059059;28;20056;-59
2022/10/13 05:15:32;;;;;;;43.20;23.48;;;9.90;99.90;;;;;;5058125;28;20037;-59
2022/10/13 05:17:59;;;;;;;41.20;25.35;;;9.90;99.90;;;;;;5059058;28;20140;-59
2022/10/13 05:20:25;;;;;;;46.53;26.05;;;9.70;99.90;;;;;;5062008;28;20090;-59
2022/10/13 05:22:51;;;;;;;39.95;23.85;;;9.90;99.90;;;;;;5062649;28;20045;-59
2022/10/13 05:25:17;;;;;;;43.90;25.35;;;9.70;99.90;;;;;;5062087;28;20139;-59
2022/10/13 05:27:45;;;;;;;42.00;25.80;;;10.00;99.90;;;;;;5062520;28;20029;-60
2022/10/13 05:30:11;;;;;;;43.70;25.58;;;9.60;99.90;;;;;;5062796;28;20455;-59
2022/10/13 05:32:37;;;;;;;42.00;24.90;;;10.00;99.90;;;;;;5061561;28;20041;-60
2022/10/13 05:35:02;;;;;;;43.60;25.55;;;9.70;99.90;;;;;;5062523;28;20060;-60
2022/10/13 05:37:28;;;;;;;47.72;27.38;;;9.70;99.90;;;;;;5061601;28;20721;-60
2022/10/13 05:39:54;;;;;;;45.92;26.73;;;9.90;99.90;;;;;;5072225;28;20041;-60
2022/10/13 05:42:19;;;;;;;47.85;26.17;;;10.10;99.90;;;;;;5080420;28;20050;-59
2022/10/13 05:44:45;;;;;;;43.75;25.48;;;9.90;99.90;;;;;;5082126;28;20510;-60
2022/10/13 05:47:11;;;;;;;45.85;26.17;;;10.00;99.90;;;;;;5082327;28;20041;-59
2022/10/13 05:49:38;;;;;;;47.45;27.85;;;9.80;99.90;;;;;;5081454;28;20048;-59
2022/10/13 05:52:07;;;;;;;47.35;27.45;;;9.70;99.90;;;;;;5081831;28;20557;-59
2022/10/13 05:54:38;;;;;;;47.13;27.13;;;10.00;99.90;;;;;;5080144;28;20059;-59
2022/10/13 05:57:13;;;;;;;48.78;28.65;;;10.10;99.90;;;;;;5080648;28;20053;-59
2022/10/13 05:59:43;;;;;;;52.25;27.60;;;9.70;99.90;;;;;;5071637;28;20041;-59
2022/10/13 06:02:13;;;;;;;43.90;26.70;;;10.10;99.90;;;;;;5061350;28;20422;-59
2022/10/13 06:04:44;;;;;;;45.55;26.73;;;10.20;99.90;;;;;;5061801;28;20080;-59
2022/10/13 06:07:10;;;;;;;44.05;28.00;;;10.10;99.90;;;;;;5061192;28;20045;-59
2022/10/13 06:09:38;;;;;;;46.00;25.65;;;9.80;99.90;;;;;;5071642;28;20112;-59
2022/10/13 06:12:05;;;;;;;47.97;27.88;;;9.80;99.90;;;;;;5081265;28;20088;-59
2022/10/13 06:14:31;;;;;;;46.85;28.23;;;9.80;99.90;;;;;;5080240;28;20037;-59
2022/10/13 06:16:56;;;;;;;48.40;27.70;;;10.10;99.90;;;;;;5081172;28;20098;-58
2022/10/13 06:19:22;;;;;;;46.03;28.30;;;10.30;99.90;;;;;;5080698;28;20040;-58
2022/10/13 06:21:48;;;;;;;46.50;27.08;;;9.90;99.90;;;;;;5081793;28;20048;-57
2022/10/13 06:24:13;;;;;;;46.72;26.73;;;10.40;99.90;;;;;;5080812;28;20407;-58
2022/10/13 06:26:39;;;;;;;43.10;26.38;;;10.20;99.90;;;;;;5081545;28;20086;-57
2022/10/13 06:29:05;;;;;;;48.38;28.27;;;10.00;99.90;;;;;;5076000;28;20418;-58
2022/10/13 06:31:31;;;;;;;50.22;28.25;;;10.10;99.90;;;;;;5076705;28;20119;-58
2022/10/13 06:33:57;;;;;;;50.42;30.17;;;10.50;99.90;;;;;;5077103;28;20069;-58
2022/10/13 06:36:23;;;;;;;47.95;28.98;;;10.40;99.90;;;;;;5075143;28;20064;-58
2022/10/13 06:38:49;;;;;;;54.38;29.63;;;10.00;99.90;;;;;;5077649;28;20040;-58
2022/10/13 06:41:14;;;;;;;51.08;29.00;;;10.40;99.90;;;;;;5075996;28;20047;-59
2022/10/13 06:43:40;;;;;;;51.53;31.15;;;10.50;99.90;;;;;;5077262;28;20280;-58
2022/10/13 06:46:06;;;;;;;56.92;29.90;;;10.30;99.90;;;;;;5076724;28;20131;-58
2022/10/13 06:48:32;;;;;;;55.80;29.65;;;10.10;99.90;;;;;;5077492;28;20040;-58
2022/10/13 06:51:02;;;;;;;56.97;31.17;;;10.40;99.90;;;;;;5076927;28;20059;-58
2022/10/13 06:53:28;;;;;;;54.30;30.70;;;10.40;99.90;;;;;;5076935;28;20044;-58
2022/10/13 06:55:57;;;;;;;50.00;29.98;;;10.30;99.90;;;;;;5077214;28;20051;-58
2022/10/13 06:58:23;;;;;;;56.33;30.92;;;10.10;99.90;;;;;;5076197;28;20044;-58
2022/10/13 07:00:49;;;;;;;53.05;31.13;;;10.60;99.90;;;;;;5077018;28;20047;-57
2022/10/13 07:03:15;;;;;;;53.03;31.45;;;10.50;99.90;;;;;;5076076;28;20096;-58
2022/10/13 07:05:40;;;;;;;50.35;30.92;;;10.70;99.90;;;;;;5076888;28;20044;-57
2022/10/13 07:08:06;;;;;;;60.60;32.67;;;10.70;99.90;;;;;;5076372;28;20048;-58
2022/10/13 07:10:32;;;;;;;55.95;30.13;;;10.30;99.90;;;;;;5076012;28;20106;-58
2022/10/13 07:12:57;;;;;;;53.45;31.75;;;10.80;99.90;;;;;;5076844;28;20115;-57
2022/10/13 07:15:23;;;;;;;59.92;32.80;;;10.40;99.90;;;;;;5075356;28;20232;-57
2022/10/13 07:17:52;;;;;;;53.20;30.42;;;10.90;99.90;;;;;;5076993;28;20435;-58
2022/10/13 07:20:19;;;;;;;52.40;31.15;;;11.00;99.90;;;;;;5076143;28;20047;-57
2022/10/13 07:22:45;;;;;;;53.33;33.03;;;10.50;99.90;;;;;;5076758;28;20079;-58
2022/10/13 07:25:11;;;;;;;56.83;33.20;;;10.50;99.90;;;;;;5076166;28;20044;-57
2022/10/13 07:27:39;;;;;;;67.38;33.85;;;10.50;99.90;;;;;;5075937;28;20044;-57
2022/10/13 07:30:05;;;;;;;59.83;31.92;;;10.80;99.90;;;;;;5076676;28;20063;-57
2022/10/13 07:32:31;;;;;;;54.72;31.83;;;11.10;99.90;;;;;;5073837;28;20048;-57
2022/10/13 07:34:57;;;;;;;59.65;33.35;;;10.90;99.90;;;;;;5076401;28;20044;-57
2022/10/13 07:37:23;;;;;;;60.20;33.03;;;11.20;99.90;;;;;;5075644;28;20036;-57
2022/10/13 07:39:50;;;;;;;56.92;31.95;;;11.30;99.90;;;;;;5075645;28;20550;-58
2022/10/13 07:42:16;;;;;;;56.42;32.85;;;11.10;99.90;;;;;;5075614;28;20561;-57
2022/10/13 07:44:42;;;;;;;61.95;34.83;;;10.80;99.90;;;;;;5075946;28;20103;-58
2022/10/13 07:47:08;;;;;;;58.03;35.40;;;11.20;99.90;;;;;;5068666;28;20049;-58
2022/10/13 07:49:33;;;;;;;58.17;35.30;;;11.30;99.90;;;;;;5055454;28;20467;-57
2022/10/13 07:51:59;;;;;;;55.95;33.33;;;11.50;99.90;;;;;;5054625;28;20072;-57
2022/10/13 07:54:25;;;;;;;61.03;34.58;;;11.00;99.90;;;;;;5055142;28;20036;-57
2022/10/13 07:56:52;;;;;;;66.15;36.20;;;11.60;99.90;;;;;;5056145;28;20064;-56
2022/10/13 07:59:18;;;;;;;59.60;33.70;;;11.60;99.90;;;;;;5059008;28;20044;-57
2022/10/13 08:01:43;;;;;;;58.80;35.05;;;11.40;99.90;;;;;;5068857;28;20105;-58
2022/10/13 08:04:09;;;;;;;54.75;29.52;;;11.70;99.90;;;;;;5074863;28;20621;-57
2022/10/13 08:06:35;;;;;;;57.33;34.13;;;11.20;99.90;;;;;;5074531;28;20485;-57
2022/10/13 08:09:02;;;;;;;59.60;34.70;;;11.80;99.90;;;;;;5076021;28;20052;-56
2022/10/13 08:11:28;;;;;;;54.63;32.35;;;11.70;99.90;;;;;;5073507;28;20268;-58
2022/10/13 08:13:54;;;;;;;63.25;34.20;;;11.90;99.90;;;;;;5075685;28;20059;-58
2022/10/13 08:16:21;;;;;;;61.72;32.22;;;11.40;99.90;;;;;;5074845;28;20083;-58
2022/10/13 08:18:47;;;;;;;65.80;34.00;;;11.40;99.90;;;;;;5075641;28;20055;-57
2022/10/13 08:21:18;;;;;;;60.50;32.15;;;11.40;99.90;;;;;;5074026;28;20047;-57
2022/10/13 08:23:44;;;;;;;54.92;32.25;;;11.40;99.90;;;;;;5074508;28;20040;-58
2022/10/13 08:26:22;;;;;;;55.83;32.50;;;11.40;99.90;;;;;;5075495;28;20048;-58
2022/10/13 08:28:48;;;;;;;56.75;31.80;;;12.00;99.90;;;;;;5074594;28;20053;-58
2022/10/13 08:31:14;;;;;;;58.85;33.00;;;11.70;99.90;;;;;;5075977;28;20156;-59
2022/10/13 08:33:40;;;;;;;55.72;31.75;;;12.10;99.90;;;;;;5074166;28;20082;-57
2022/10/13 08:36:06;;;;;;;57.00;31.50;;;11.50;99.90;;;;;;5075157;28;20074;-58
2022/10/13 08:38:33;;;;;;;61.80;33.88;;;12.10;99.90;;;;;;5069229;28;20047;-57
2022/10/13 08:40:59;;;;;;;61.60;33.60;;;12.10;99.90;;;;;;5055677;28;20089;-57
2022/10/13 08:43:25;;;;;;;60.10;33.28;;;11.90;99.90;;;;;;5057012;28;20041;-57
2022/10/13 08:45:58;;;;;;;54.70;33.05;;;12.00;99.90;;;;;;5055006;28;20045;-55
2022/10/13 08:48:29;;;;;;;56.03;32.40;;;11.60;99.90;;;;;;5054887;28;20475;-57
2022/10/13 08:50:58;;;;;;;58.75;34.40;;;12.00;99.90;;;;;;5053757;28;20048;-57
2022/10/13 08:53:36;;;;;;;62.47;32.47;;;12.10;99.90;;;;;;5056315;28;20131;-57
2022/10/13 08:56:25;;;;;;;61.33;33.83;;;12.10;99.90;;;;;;5067288;28;20052;-57
2022/10/13 08:58:53;;;;;;;59.50;33.60;;;12.30;99.90;;;;;;5064656;28;20084;-57
2022/10/13 09:01:22;;;;;;;60.88;34.75;;;11.70;99.90;;;;;;5065002;28;20070;-57
2022/10/13 09:04:07;;;;;;;62.50;35.60;;;11.90;99.90;;;;;;5066345;28;20044;-57
2022/10/13 09:06:35;;;;;;;61.00;34.03;;;12.40;99.90;;;;;;5061606;28;20296;-58
2022/10/13 09:09:07;;;;;;;63.55;36.72;;;11.70;99.90;;;;;;5066200;28;20036;-57
2022/10/13 09:11:39;;;;;;;67.60;37.20;;;11.80;99.90;;;;;;5065015;28;20044;-57
2022/10/13 09:14:07;;;;;;;62.88;35.17;;;12.40;99.90;;;;;;5064609;28;20049;-58
2022/10/13 09:16:40;;;;;;;72.63;36.92;;;12.00;99.90;;;;;;5062472;28;20041;-58
2022/10/13 09:19:26;;;;;;;65.20;35.80;;;12.60;99.90;;;;;;5061450;28;20044;-57
2022/10/13 09:22:21;;;;;;;72.55;37.58;;;11.90;99.90;;;;;;5063332;28;20108;-56
2022/10/13 09:25:08;;;;;;;63.13;34.92;;;12.00;99.90;;;;;;5066200;28;20094;-57
2022/10/13 09:28:07;;;;;;;64.30;36.03;;;12.70;99.90;;;;;;5068173;28;20110;-58
2022/10/13 09:30:40;;;;;;;65.18;36.08;;;12.50;99.90;;;;;;5067157;28;20042;-57
2022/10/13 09:33:10;;;;;;;67.80;36.20;;;12.10;99.90;;;;;;5067515;28;20083;-57
2022/10/13 09:35:40;;;;;;;69.40;36.47;;;12.10;99.90;;;;;;5068633;28;20488;-58
2022/10/13 09:38:13;;;;;;;69.20;36.72;;;12.60;99.90;;;;;;5066185;28;20078;-57
2022/10/13 09:40:40;;;;;;;67.75;37.20;;;12.30;99.90;;;;;;5065429;28;20079;-58
2022/10/13 09:43:26;;;;;;;69.72;36.42;;;12.20;99.90;;;;;;5064455;28;20496;-58
2022/10/13 09:45:52;;;;;;;70.22;35.88;;;12.90;99.90;;;;;;5061906;28;20055;-59
2022/10/13 09:48:24;;;;;;;69.45;36.65;;;12.20;99.90;;;;;;5067826;28;20104;-59
2022/10/13 09:50:52;;;;;;;61.38;34.05;;;12.20;99.90;;;;;;5063589;28;20049;-59
2022/10/13 09:53:39;;;;;;;63.13;34.08;;;12.30;99.90;;;;;;5067543;28;20061;-59
2022/10/13 09:56:29;;;;;;;67.10;34.53;;;12.40;99.90;;;;;;5068070;28;20044;-59
2022/10/13 09:59:30;;;;;;;65.93;33.70;;;12.70;99.90;;;;;;5067127;28;20063;-59
2022/10/13 10:01:57;;;;;;;63.80;33.55;;;12.50;99.90;;;;;;5068733;28;20075;-60
2022/10/13 10:04:36;;;;;;;68.70;35.10;;;13.10;99.90;;;;;;5069535;28;20055;-59
2022/10/13 10:07:11;;;;;;;61.00;33.13;;;12.70;99.90;;;;;;5068691;28;20110;-59
2022/10/13 10:09:43;;;;;;;65.38;33.25;;;13.10;99.90;;;;;;5065185;28;20057;-61
2022/10/13 10:12:13;;;;;;;;;;;12.50;99.90;;;;;;5067747;28;20048;-60
2022/10/13 10:14:38;;;;;;;63.22;32.22;;;12.50;99.90;;;;;;5069077;28;19928;-60
2022/10/13 10:17:23;;;;;;;67.72;34.10;;;12.60;99.90;;;;;;5068405;28;20109;-60
2022/10/13 10:20:14;;;;;;;61.13;32.40;;;12.90;99.90;;;;;;5069404;28;20045;-62
2022/10/13 10:22:42;;;;;;;61.73;32.03;;;13.10;99.90;;;;;;5069558;28;20045;-61
2022/10/13 10:25:40;;;;;;;60.38;31.45;;;13.10;99.90;;;;;;5068145;28;20076;-61
2022/10/13 10:28:28;;;;;;;62.92;30.73;;;12.50;99.90;;;;;;5067373;28;20040;-61
2022/10/13 10:31:31;;;;;;;67.35;32.60;;;12.50;99.90;;;;;;5068850;28;20135;-61
2022/10/13 10:34:05;;;;;;;64.55;30.55;;;13.40;99.90;;;;;;5068358;28;20047;-61
2022/10/13 10:36:56;;;;;;;67.32;31.95;;;13.30;99.90;;;;;;5066523;28;20044;-61
2022/10/13 10:39:41;;;;;;;59.60;31.05;;;12.80;99.90;;;;;;5067860;28;20052;-60
2022/10/13 10:42:27;;;;;;;70.05;33.70;;;12.60;99.90;;;;;;5066398;28;20040;-60
2022/10/13 10:44:55;;;;;;;67.32;32.95;;;12.70;99.90;;;;;;5068630;28;20509;-60
2022/10/13 10:47:27;;;;;;;65.70;33.28;;;13.50;99.90;;;;;;5076164;28;20047;-60
2022/10/13 10:50:00;;;;;;;71.63;33.75;;;13.40;99.90;;;;;;5077942;28;20041;-60
2022/10/13 10:52:36;;;;;;;67.32;33.08;;;13.60;99.90;;;;;;5080547;28;20052;-59
2022/10/13 10:55:28;;;;;;;69.88;32.97;;;12.80;99.90;;;;;;5078402;28;20048;-60
2022/10/13 10:58:16;;;;;;;70.18;32.28;;;12.80;99.90;;;;;;5076562;28;20044;-57
2022/10/13 11:00:54;;;;;;;70.75;34.15;;;13.70;99.90;;;;;;5077213;28;20041;-60
2022/10/13 11:03:39;;;;;;;67.30;32.55;;;13.00;99.90;;;;;;5078972;28;20041;-59
2022/10/13 11:06:17;;;;;;;65.47;32.38;;;12.80;99.90;;;;;;5078256;28;20037;-59
2022/10/13 11:08:45;;;;;;;64.88;31.35;;;13.60;99.90;;;;;;5079783;28;20171;-59
2022/10/13 11:11:27;;;;;;;61.97;32.03;;;13.60;99.90;;;;;;5077592;28;20051;-60
2022/10/13 11:14:26;;;;;;;63.08;32.05;;;12.80;99.90;;;;;;5076094;28;20046;-59
2022/10/13 11:17:27;;;;;;;62.28;29.95;;;13.40;99.90;;;;;;5078893;28;20032;-60
2022/10/13 11:19:53;;;;;;;55.95;29.05;;;13.60;99.90;;;;;;5067311;28;20059;-59
2022/10/13 11:22:24;;;;;;;63.47;31.38;;;13.70;99.90;;;;;;5080021;28;20040;-59
2022/10/13 11:24:52;;;;;;;60.38;30.88;;;13.90;99.90;;;;;;5079727;28;20070;-59
2022/10/13 11:27:36;;;;;;;58.47;31.73;;;13.20;99.90;;;;;;5080408;28;20044;-60
2022/10/13 11:30:03;;;;;;;57.42;29.83;;;13.00;99.90;;;;;;5080131;28;20435;-60
2022/10/13 11:32:39;;;;;;;63.13;32.15;;;13.50;99.90;;;;;;5078724;28;20037;-60
2022/10/13 11:35:05;;;;;;;57.97;30.77;;;13.20;99.90;;;;;;5079563;28;20075;-60
2022/10/13 11:38:01;;;;;;;56.67;30.75;;;13.80;99.90;;;;;;5065002;28;20047;-60
2022/10/13 11:40:33;;;;;;;48.40;28.20;;;14.00;99.90;;;;;;5053526;28;20083;-60
2022/10/13 11:43:19;;;;;;;53.80;29.13;;;13.60;99.90;;;;;;5066490;28;20044;-59
2022/10/13 11:45:51;;;;;;;55.20;29.10;;;14.20;99.90;;;;;;5066483;28;20044;-59
2022/10/13 11:48:35;;;;;;;54.88;28.90;;;13.50;99.90;;;;;;5065212;28;20132;-59
2022/10/13 11:51:51;;;;;;;47.30;27.92;;;14.20;99.90;;;;;;5065439;28;21291;-59
2022/10/13 11:54:30;;;;;;;49.28;27.58;;;14.10;99.90;;;;;;5055006;28;20673;-59
2022/10/13 11:56:57;;;;;;;41.72;24.17;;;14.40;99.90;;;;;;5064688;28;20067;-59
2022/10/13 11:59:29;;;;;;;35.33;23.58;;;14.50;99.90;;;;;;5063062;28;20040;-59
2022/10/13 12:02:12;;;;;;;32.05;21.25;;;13.50;99.90;;;;;;5067876;28;20169;-60
2022/10/13 12:04:40;;;;;;;32.25;21.52;;;13.60;99.90;;;;;;5067789;28;20519;-59
2022/10/13 12:07:09;;;;;;;32.88;21.85;;;13.60;99.90;;;;;;5069357;28;20127;-59
2022/10/13 12:09:55;;;;;;;31.63;20.58;;;13.60;99.90;;;;;;5067966;28;20064;-59
2022/10/13 12:12:22;;;;;;;33.67;22.52;;;14.20;99.90;;;;;;5068340;28;20098;-58
2022/10/13 12:14:51;;;;;;;37.17;22.27;;;13.80;99.90;;;;;;5067067;28;20053;-57
2022/10/13 12:17:36;;;;;;;30.52;19.80;;;13.60;99.90;;;;;;5068000;28;21245;-57
2022/10/13 12:20:21;;;;;;;32.00;20.30;;;14.00;99.90;;;;;;5066275;28;20137;-58
2022/10/13 12:22:49;;;;;;;29.70;18.95;;;13.70;99.90;;;;;;5069629;28;20532;-58
2022/10/13 12:25:16;;;;;;;23.92;17.70;;;14.50;99.90;;;;;;5064920;28;20094;-57
2022/10/13 12:27:48;;;;;;;27.73;18.65;;;14.20;99.90;;;;;;5066835;28;20130;-58
2022/10/13 12:30:26;;;;;;;28.38;17.73;;;13.80;99.90;;;;;;5067933;28;20113;-58
2022/10/13 12:32:54;;;;;;;26.67;16.90;;;13.90;99.90;;;;;;5064654;28;20460;-58
2022/10/13 12:35:31;;;;;;;25.75;16.20;;;14.50;99.90;;;;;;5064063;28;20052;-58
2022/10/13 12:38:01;;;;;;;26.73;16.05;;;14.20;99.90;;;;;;5067688;28;20086;-57
2022/10/13 12:40:28;;;;;;;24.10;16.20;;;13.80;99.90;;;;;;5066278;28;20134;-58
2022/10/13 12:42:54;;;;;;;22.45;16.30;;;13.80;99.90;;;;;;5067519;28;20045;-57
2022/10/13 12:45:23;;;;;;;22.90;15.00;;;14.40;99.90;;;;;;5063929;28;20052;-57
2022/10/13 12:47:53;;;;;;;21.90;13.73;;;14.50;99.90;;;;;;5066583;28;20032;-57
2022/10/13 12:50:37;;;;;;;21.98;13.40;;;14.10;99.90;;;;;;5065511;28;20055;-57